createdAt,value
2022-10-30T00:01:08.412Z,11.64
2022-10-30T00:03:36.244Z,11.11
2022-10-30T00:06:07.245Z,11.50
2022-10-30T00:08:35.517Z,11.62
2022-10-30T00:11:08.339Z,11.70
2022-10-30T00:13:36.262Z,11.77
2022-10-30T00:16:06.427Z,11.57
2022-10-30T00:18:36.225Z,11.45
2022-10-30T00:21:10.251Z,11.60
2022-10-30T00:23:38.199Z,11.44
2022-10-30T00:26:07.112Z,11.43
2022-10-30T00:28:35.716Z,11.49
2022-10-30T00:31:06.078Z,11.52
2022-10-30T00:33:34.174Z,11.42
2022-10-30T00:36:02.238Z,11.59
2022-10-30T00:38:31.442Z,11.62
2022-10-30T00:40:59.241Z,11.62
2022-10-30T00:43:32.565Z,11.62
2022-10-30T00:46:07.935Z,11.45
2022-10-30T00:48:36.491Z,11.54
2022-10-30T00:51:09.686Z,11.49
2022-10-30T00:53:40.558Z,11.57
2022-10-30T00:56:11.639Z,11.59
2022-10-30T00:58:43.067Z,11.50
2022-10-30T01:01:16.928Z,11.41
2022-10-30T01:03:45.137Z,11.38
2022-10-30T01:06:17.032Z,11.55
2022-10-30T01:08:47.338Z,11.52
2022-10-30T01:11:15.170Z,11.58
2022-10-30T01:13:45.554Z,11.52
2022-10-30T01:16:32.670Z,10.97
2022-10-30T01:19:07.943Z,11.29
2022-10-30T01:21:46.117Z,11.19
2022-10-30T01:24:32.268Z,11.39
2022-10-30T01:27:15.104Z,11.17
2022-10-30T01:29:56.503Z,11.19
2022-10-30T01:32:40.717Z,11.21
2022-10-30T01:35:16.176Z,11.13
2022-10-30T01:37:51.501Z,10.99
2022-10-30T01:40:21.269Z,11.00
2022-10-30T01:42:51.803Z,11.05
2022-10-30T01:45:26.150Z,10.92
2022-10-30T01:48:15.230Z,10.99
2022-10-30T01:50:49.912Z,10.98
2022-10-30T01:53:32.045Z,10.82
2022-10-30T01:56:16.229Z,10.86
2022-10-30T01:58:48.997Z,10.82
2022-10-30T02:01:17.253Z,10.79
2022-10-30T02:03:45.696Z,10.67
2022-10-30T02:06:13.456Z,10.48
2022-10-30T02:08:41.135Z,10.47
2022-10-30T02:11:11.384Z,10.42
2022-10-30T02:13:39.432Z,10.46
2022-10-30T02:16:08.405Z,10.44
2022-10-30T02:18:36.086Z,10.45
2022-10-30T02:21:06.523Z,10.36
2022-10-30T02:23:34.271Z,10.43
2022-10-30T02:26:01.977Z,10.48
2022-10-30T02:28:29.673Z,10.51
2022-10-30T02:30:57.360Z,10.34
2022-10-30T02:33:25.395Z,10.50
2022-10-30T02:35:54.605Z,10.50
2022-10-30T02:38:24.119Z,10.49
2022-10-30T02:40:51.852Z,10.51
2022-10-30T02:43:19.519Z,10.58
2022-10-30T02:45:51.866Z,10.70
2022-10-30T02:48:19.553Z,10.73
2022-10-30T02:50:47.210Z,10.69
2022-10-30T02:53:14.903Z,10.60
2022-10-30T02:55:43.955Z,10.50
2022-10-30T02:58:11.679Z,10.42
2022-10-30T03:00:39.305Z,10.45
2022-10-30T03:03:06.957Z,10.42
2022-10-30T03:05:34.681Z,10.36
2022-10-30T03:08:02.625Z,10.29
2022-10-30T03:10:31.243Z,10.28
2022-10-30T03:13:00.995Z,10.36
2022-10-30T03:15:28.651Z,10.26
2022-10-30T03:17:56.680Z,10.25
2022-10-30T03:20:24.578Z,10.38
2022-10-30T03:22:52.276Z,10.50
2022-10-30T03:25:23.769Z,10.49
2022-10-30T03:27:51.829Z,10.39
2022-10-30T03:30:20.892Z,10.36
2022-10-30T03:32:48.535Z,10.31
2022-10-30T03:35:16.264Z,10.25
2022-10-30T03:37:43.940Z,10.22
2022-10-30T03:40:12.399Z,10.30
2022-10-30T03:42:40.929Z,10.20
2022-10-30T03:45:09.545Z,10.14
2022-10-30T03:47:40.866Z,10.23
2022-10-30T03:50:09.083Z,10.25
2022-10-30T03:52:36.764Z,10.18
2022-10-30T03:55:04.750Z,10.23
2022-10-30T03:57:32.440Z,10.22
2022-10-30T04:00:00.086Z,10.26
2022-10-30T04:02:27.822Z,10.25
2022-10-30T04:04:57.202Z,10.14
2022-10-30T04:07:24.996Z,10.10
2022-10-30T04:09:52.666Z,9.97
2022-10-30T04:12:20.366Z,9.96
2022-10-30T04:14:48.083Z,9.92
2022-10-30T04:17:15.711Z,9.90
2022-10-30T04:19:44.223Z,9.82
2022-10-30T04:22:13.945Z,9.95
2022-10-30T04:24:41.623Z,10.00
2022-10-30T04:27:09.304Z,9.99
2022-10-30T04:29:37.789Z,9.99
2022-10-30T04:34:39.342Z,10.08
2022-10-30T04:37:07.495Z,10.09
2022-10-30T04:39:37.453Z,10.06
2022-10-30T04:42:07.577Z,10.05
2022-10-30T04:44:35.218Z,10.09
2022-10-30T04:47:02.863Z,10.09
2022-10-30T04:49:30.499Z,10.08
2022-10-30T04:51:58.153Z,10.12
2022-10-30T04:54:25.835Z,10.09
2022-10-30T04:56:54.869Z,10.00
2022-10-30T04:59:22.589Z,10.02
2022-10-30T05:01:50.334Z,9.96
2022-10-30T05:04:18.478Z,10.01
2022-10-30T05:06:46.197Z,10.00
2022-10-30T05:09:13.853Z,9.96
2022-10-30T05:11:41.562Z,9.89
2022-10-30T05:14:10.647Z,9.88
2022-10-30T05:16:38.331Z,9.78
2022-10-30T05:19:06.241Z,9.71
2022-10-30T05:21:33.934Z,9.67
2022-10-30T05:24:01.677Z,9.80
2022-10-30T05:26:29.368Z,9.82
2022-10-30T05:28:57.050Z,9.87
2022-10-30T05:31:26.256Z,9.88
2022-10-30T05:33:54.215Z,10.03
2022-10-30T05:36:22.293Z,10.06
2022-10-30T05:38:50.042Z,10.15
2022-10-30T05:41:17.719Z,10.03
2022-10-30T05:43:45.476Z,9.92
2022-10-30T05:46:13.286Z,10.00
2022-10-30T05:48:42.322Z,10.11
2022-10-30T05:51:10.066Z,10.02
2022-10-30T05:53:37.784Z,10.00
2022-10-30T05:56:06.029Z,9.94
2022-10-30T05:58:33.767Z,9.91
2022-10-30T06:01:01.531Z,9.92
2022-10-30T06:03:29.331Z,9.80
2022-10-30T06:05:58.416Z,9.81
2022-10-30T06:08:26.256Z,9.77
2022-10-30T06:10:55.058Z,9.78
2022-10-30T06:13:22.769Z,9.81
2022-10-30T06:15:50.712Z,9.83
2022-10-30T06:18:18.452Z,9.98
2022-10-30T06:20:46.311Z,10.00
2022-10-30T06:23:15.485Z,10.19
2022-10-30T06:25:43.264Z,10.09
2022-10-30T06:28:13.572Z,10.33
2022-10-30T06:30:41.503Z,10.35
2022-10-30T06:33:10.821Z,10.45
2022-10-30T06:35:38.703Z,10.46
2022-10-30T06:38:06.432Z,10.51
2022-10-30T06:40:35.534Z,10.54
2022-10-30T06:43:03.474Z,10.56
2022-10-30T06:45:31.300Z,10.43
2022-10-30T06:47:59.307Z,10.37
2022-10-30T06:50:27.253Z,10.47
2022-10-30T06:52:55.923Z,10.46
2022-10-30T06:55:23.658Z,10.51
2022-10-30T06:57:56.707Z,10.55
2022-10-30T07:00:24.860Z,10.56
2022-10-30T07:03:00.011Z,10.38
2022-10-30T07:05:28.624Z,10.47
2022-10-30T07:07:57.799Z,10.39
2022-10-30T07:10:25.634Z,10.45
2022-10-30T07:12:57.546Z,10.45
2022-10-30T07:15:25.814Z,10.59
2022-10-30T07:17:55.477Z,10.74
2022-10-30T07:20:23.286Z,10.78
2022-10-30T07:22:51.325Z,10.80
2022-10-30T07:25:19.201Z,10.92
2022-10-30T07:27:49.024Z,10.89
2022-10-30T07:30:20.202Z,10.79
2022-10-30T07:32:48.403Z,10.80
2022-10-30T07:35:16.214Z,10.87
2022-10-30T07:37:43.924Z,10.80
2022-10-30T07:40:13.213Z,10.74
2022-10-30T07:42:41.041Z,10.92
2022-10-30T07:47:44.518Z,11.13
2022-10-30T07:50:12.491Z,11.39
2022-10-30T07:52:40.259Z,11.31
2022-10-30T07:55:08.915Z,11.46
2022-10-30T07:57:37.265Z,11.76
2022-10-30T08:00:06.442Z,11.76
2022-10-30T08:02:34.334Z,11.80
2022-10-30T08:05:04.039Z,11.97
2022-10-30T08:07:32.146Z,11.89
2022-10-30T08:09:59.829Z,11.84
2022-10-30T08:12:28.090Z,11.68
2022-10-30T08:14:55.802Z,11.85
2022-10-30T08:17:23.546Z,12.14
2022-10-30T08:19:51.254Z,12.06
2022-10-30T08:22:20.308Z,12.15
2022-10-30T08:24:48.028Z,11.94
2022-10-30T08:27:16.018Z,11.94
2022-10-30T08:29:43.854Z,11.80
2022-10-30T08:32:11.579Z,12.01
2022-10-30T08:34:40.055Z,12.13
2022-10-30T08:37:08.790Z,12.23
2022-10-30T08:39:38.760Z,12.04
2022-10-30T08:42:06.544Z,12.17
2022-10-30T08:44:34.832Z,12.42
2022-10-30T08:47:02.659Z,12.55
2022-10-30T08:49:30.308Z,12.55
2022-10-30T08:51:57.965Z,12.17
2022-10-30T08:54:25.645Z,12.02
2022-10-30T08:56:54.658Z,12.14
2022-10-30T08:59:22.328Z,12.26
2022-10-30T09:01:51.139Z,12.30
2022-10-30T09:04:19.868Z,12.42
2022-10-30T09:06:47.580Z,12.30
2022-10-30T09:09:15.558Z,12.61
2022-10-30T09:11:43.205Z,12.77
2022-10-30T09:14:12.550Z,12.69
2022-10-30T09:16:40.261Z,13.01
2022-10-30T09:19:07.955Z,12.95
2022-10-30T09:21:35.612Z,12.95
2022-10-30T09:24:03.282Z,13.00
2022-10-30T09:26:31.007Z,13.25
2022-10-30T09:28:58.851Z,13.27
2022-10-30T09:31:27.905Z,13.59
2022-10-30T09:33:55.575Z,13.42
2022-10-30T09:36:23.277Z,13.63
2022-10-30T09:38:50.921Z,13.94
2022-10-30T09:41:33.411Z,14.00
2022-10-30T09:44:16.215Z,14.04
2022-10-30T09:47:01.329Z,14.28
2022-10-30T09:49:45.291Z,14.12
2022-10-30T09:52:21.927Z,14.17
2022-10-30T09:55:06.612Z,14.36
2022-10-30T09:57:44.006Z,14.08
2022-10-30T10:00:13.827Z,14.29
2022-10-30T10:03:05.147Z,14.10
2022-10-30T10:05:44.137Z,13.92
2022-10-30T10:08:16.911Z,13.82
2022-10-30T10:10:46.693Z,13.95
2022-10-30T10:13:28.856Z,14.13
2022-10-30T10:16:00.047Z,14.09
2022-10-30T10:18:36.950Z,14.19
2022-10-30T10:21:11.886Z,14.49
2022-10-30T10:23:47.836Z,14.81
2022-10-30T10:26:27.734Z,14.98
2022-10-30T10:29:10.109Z,15.34
2022-10-30T10:31:44.549Z,15.56
2022-10-30T10:34:38.107Z,15.78
2022-10-30T10:37:16.084Z,16.25
2022-10-30T10:40:01.357Z,16.44
2022-10-30T10:42:40.994Z,16.53
2022-10-30T10:45:20.787Z,17.09
2022-10-30T10:50:53.768Z,17.42
2022-10-30T10:53:25.849Z,18.06
2022-10-30T10:55:58.371Z,17.53
2022-10-30T10:58:32.501Z,17.37
2022-10-30T11:01:01.148Z,17.37
2022-10-30T11:03:38.211Z,17.40
2022-10-30T11:06:21.135Z,17.27
2022-10-30T11:08:50.312Z,17.26
2022-10-30T11:11:18.054Z,17.20
2022-10-30T11:13:45.902Z,17.22
2022-10-30T11:16:30.107Z,17.48
2022-10-30T11:19:01.469Z,17.49
2022-10-30T11:21:34.493Z,17.44
2022-10-30T11:24:02.365Z,17.75
2022-10-30T11:26:34.981Z,17.99
2022-10-30T11:29:12.731Z,17.90
2022-10-30T11:31:42.066Z,18.17
2022-10-30T11:34:24.773Z,17.94
2022-10-30T11:36:55.168Z,18.06
2022-10-30T11:39:24.683Z,17.92
2022-10-30T11:41:59.243Z,18.16
2022-10-30T11:44:31.853Z,18.36
2022-10-30T11:47:00.192Z,18.24
2022-10-30T11:49:34.858Z,18.37
2022-10-30T11:52:05.302Z,18.74
2022-10-30T11:54:37.606Z,18.85
2022-10-30T11:57:06.113Z,18.80
2022-10-30T11:59:33.961Z,18.80
2022-10-30T12:02:04.647Z,19.16
2022-10-30T12:04:33.146Z,19.33
2022-10-30T12:07:20.584Z,19.21
2022-10-30T12:09:49.029Z,19.38
2022-10-30T12:12:29.475Z,19.18
2022-10-30T12:14:57.235Z,19.30
2022-10-30T12:17:24.948Z,19.41
2022-10-30T12:19:57.372Z,19.07
2022-10-30T12:22:34.337Z,18.98
2022-10-30T12:25:05.863Z,18.79
2022-10-30T12:27:38.255Z,19.39
2022-10-30T12:30:15.995Z,19.25
2022-10-30T12:32:50.507Z,19.42
2022-10-30T12:35:37.096Z,19.50
2022-10-30T12:38:08.616Z,19.33
2022-10-30T12:40:41.706Z,19.47
2022-10-30T12:43:17.187Z,19.38
2022-10-30T12:45:46.846Z,19.38
2022-10-30T12:48:19.303Z,19.24
2022-10-30T12:50:57.022Z,19.05
2022-10-30T12:53:33.303Z,19.25
2022-10-30T12:56:06.391Z,19.19
2022-10-30T12:58:40.895Z,19.38
2022-10-30T13:01:18.660Z,19.28
2022-10-30T13:03:52.228Z,19.20
2022-10-30T13:06:24.793Z,19.13
2022-10-30T13:09:10.644Z,19.31
2022-10-30T13:11:46.376Z,19.31
2022-10-30T13:14:18.429Z,19.21
2022-10-30T13:16:46.265Z,19.18
2022-10-30T13:19:14.885Z,19.14
2022-10-30T13:21:51.270Z,19.05
2022-10-30T13:24:26.597Z,19.18
2022-10-30T13:26:58.863Z,18.65
2022-10-30T13:29:32.739Z,18.82
2022-10-30T13:32:19.361Z,18.76
2022-10-30T13:34:53.479Z,18.89
2022-10-30T13:37:27.751Z,19.03
2022-10-30T13:40:06.864Z,18.98
2022-10-30T13:42:50.074Z,18.82
2022-10-30T13:45:57.547Z,18.77
2022-10-30T13:48:37.673Z,18.66
2022-10-30T13:51:26.401Z,18.47
2022-10-30T13:54:04.354Z,18.50
2022-10-30T13:56:34.877Z,18.43
2022-10-30T13:59:11.098Z,18.26
2022-10-30T14:01:44.069Z,18.18
2022-10-30T14:04:18.741Z,18.04
2022-10-30T14:06:53.308Z,17.98
2022-10-30T14:09:33.595Z,17.97
2022-10-30T14:12:41.987Z,17.93
2022-10-30T14:15:20.067Z,17.85
2022-10-30T14:18:20.915Z,17.84
2022-10-30T14:20:50.381Z,17.86
2022-10-30T14:23:23.275Z,17.88
2022-10-30T14:26:13.749Z,17.75
2022-10-30T14:28:44.998Z,17.72
2022-10-30T14:31:16.681Z,17.35
2022-10-30T14:33:47.508Z,17.18
2022-10-30T14:36:18.723Z,17.44
2022-10-30T14:38:59.506Z,17.35
2022-10-30T14:41:41.997Z,17.41
2022-10-30T14:44:38.285Z,17.09
2022-10-30T14:47:30.534Z,17.03
2022-10-30T14:50:03.173Z,17.09
2022-10-30T14:52:37.810Z,16.99
2022-10-30T14:55:28.125Z,17.00
2022-10-30T14:58:22.467Z,16.63
2022-10-30T15:00:53.949Z,16.69
2022-10-30T15:03:50.248Z,16.79
2022-10-30T15:06:25.683Z,16.78
2022-10-30T15:09:08.393Z,16.55
2022-10-30T15:11:59.088Z,16.58
2022-10-30T15:17:31.569Z,16.29
2022-10-30T15:20:02.585Z,16.20
2022-10-30T15:22:31.448Z,16.27
2022-10-30T15:24:59.883Z,16.24
2022-10-30T15:27:28.165Z,16.13
2022-10-30T15:30:00.544Z,16.13
2022-10-30T15:32:29.617Z,15.93
2022-10-30T15:34:59.976Z,15.77
2022-10-30T15:37:28.962Z,15.80
2022-10-30T15:40:17.707Z,15.62
2022-10-30T15:42:46.450Z,15.54
2022-10-30T15:45:19.275Z,15.55
2022-10-30T15:47:56.899Z,15.44
2022-10-30T15:50:24.898Z,15.35
2022-10-30T15:52:53.982Z,15.20
2022-10-30T15:55:27.338Z,15.23
2022-10-30T15:58:03.301Z,15.15
2022-10-30T16:00:34.497Z,15.10
2022-10-30T16:03:06.099Z,15.02
2022-10-30T16:05:34.870Z,14.94
2022-10-30T16:08:04.094Z,14.90
2022-10-30T16:10:35.466Z,14.87
2022-10-30T16:13:04.779Z,14.81
2022-10-30T16:15:34.895Z,14.65
2022-10-30T16:18:09.582Z,14.56
2022-10-30T16:20:37.973Z,14.54
2022-10-30T16:23:06.598Z,14.48
2022-10-30T16:25:37.368Z,14.43
2022-10-30T16:28:05.645Z,14.37
2022-10-30T16:30:35.019Z,14.30
2022-10-30T16:33:05.142Z,14.21
2022-10-30T16:35:32.935Z,14.12
2022-10-30T16:38:02.593Z,14.07
2022-10-30T16:40:31.724Z,13.98
2022-10-30T16:43:01.771Z,13.97
2022-10-30T16:45:57.688Z,13.95
2022-10-30T16:48:34.337Z,13.92
2022-10-30T16:51:03.997Z,13.93
2022-10-30T16:53:32.377Z,13.90
2022-10-30T16:56:00.856Z,13.87
2022-10-30T16:58:31.279Z,13.79
2022-10-30T17:01:05.426Z,13.77
2022-10-30T17:03:38.897Z,13.61
2022-10-30T17:06:25.155Z,13.56
2022-10-30T17:08:54.209Z,13.42
2022-10-30T17:11:35.908Z,13.43
2022-10-30T17:14:07.006Z,13.41
2022-10-30T17:16:38.278Z,13.34
2022-10-30T17:19:47.382Z,13.29
2022-10-30T17:22:19.650Z,13.29
2022-10-30T17:24:48.533Z,13.32
2022-10-30T17:27:47.797Z,13.32
2022-10-30T17:30:37.878Z,13.30
2022-10-30T17:33:25.374Z,13.27
2022-10-30T17:38:27.117Z,13.35
2022-10-30T17:40:54.980Z,13.31
2022-10-30T17:43:26.168Z,13.27
2022-10-30T17:45:53.883Z,13.15
2022-10-30T17:48:23.783Z,13.15
2022-10-30T17:50:51.481Z,13.13
2022-10-30T17:53:22.345Z,13.03
2022-10-30T17:55:56.719Z,13.02
2022-10-30T17:58:25.022Z,13.14
2022-10-30T18:00:52.752Z,13.12
2022-10-30T18:03:20.477Z,13.19
2022-10-30T18:05:49.350Z,13.19
2022-10-30T18:08:17.040Z,13.19
2022-10-30T18:10:46.075Z,13.16
2022-10-30T18:13:15.044Z,13.13
2022-10-30T18:15:45.005Z,13.03
2022-10-30T18:18:12.780Z,13.04
2022-10-30T18:20:40.562Z,13.04
2022-10-30T18:23:46.340Z,12.97
2022-10-30T18:26:08.304Z,12.95
2022-10-30T18:28:36.017Z,12.94
2022-10-30T18:31:03.787Z,12.90
2022-10-30T18:33:31.509Z,12.84
2022-10-30T18:36:00.060Z,12.85
2022-10-30T18:38:27.777Z,12.81
2022-10-30T18:40:55.705Z,12.86
2022-10-30T18:43:24.749Z,12.82
2022-10-30T18:45:52.452Z,12.74
2022-10-30T18:48:20.173Z,12.73
2022-10-30T18:50:47.932Z,12.67
2022-10-30T18:53:17.819Z,12.62
2022-10-30T18:58:13.966Z,12.55
2022-10-30T19:01:10.006Z,12.47
2022-10-30T19:03:30.935Z,12.51
2022-10-30T19:05:58.701Z,12.44
2022-10-30T19:08:26.536Z,12.47
2022-10-30T19:10:58.026Z,12.48
2022-10-30T19:13:25.801Z,12.48
2022-10-30T19:16:00.505Z,12.49
2022-10-30T19:18:31.049Z,12.52
2022-10-30T19:21:04.433Z,12.50
2022-10-30T19:23:33.681Z,12.53
2022-10-30T19:26:01.474Z,12.52
2022-10-30T19:28:30.744Z,12.44
2022-10-30T19:30:59.995Z,12.46
2022-10-30T19:33:27.676Z,12.34
2022-10-30T19:35:56.460Z,12.22
2022-10-30T19:38:24.528Z,12.15
2022-10-30T19:40:52.465Z,12.16
2022-10-30T19:43:20.498Z,12.19
2022-10-30T19:45:51.342Z,12.11
2022-10-30T19:48:47.683Z,12.04
2022-10-30T19:51:12.035Z,12.02
2022-10-30T19:53:39.986Z,12.02
2022-10-30T19:56:09.469Z,11.95
2022-10-30T19:58:37.175Z,11.96
2022-10-30T20:01:04.929Z,11.94
2022-10-30T20:03:34.073Z,11.93
2022-10-30T20:06:01.765Z,11.97
2022-10-30T20:08:29.493Z,11.98
2022-10-30T20:10:59.615Z,12.01
2022-10-30T20:13:28.283Z,11.94
2022-10-30T20:15:58.207Z,11.95
2022-10-30T20:18:30.142Z,11.93
2022-10-30T20:21:01.657Z,11.94
2022-10-30T20:23:30.241Z,11.84
2022-10-30T20:26:00.879Z,11.63
2022-10-30T20:28:30.938Z,11.70
2022-10-30T20:30:58.790Z,11.70
2022-10-30T20:33:26.744Z,11.74
2022-10-30T20:35:55.600Z,11.70
2022-10-30T20:38:26.793Z,11.76
2022-10-30T20:40:54.813Z,11.74
2022-10-30T20:43:29.171Z,11.68
2022-10-30T20:45:58.242Z,11.58
2022-10-30T20:48:26.137Z,11.59
2022-10-30T20:50:54.101Z,11.54
2022-10-30T20:53:21.798Z,11.45
2022-10-30T20:55:51.213Z,11.36
2022-10-30T20:58:19.222Z,11.44
2022-10-30T21:00:47.177Z,11.38
2022-10-30T21:03:15.293Z,11.34
2022-10-30T21:05:45.669Z,11.17
2022-10-30T21:08:14.877Z,11.24
2022-10-30T21:10:43.208Z,11.21
2022-10-30T21:13:12.300Z,11.06
2022-10-30T21:15:40.913Z,11.10
2022-10-30T21:18:09.122Z,11.17
2022-10-30T21:20:37.561Z,11.19
2022-10-30T21:23:05.569Z,11.16
2022-10-30T21:25:33.320Z,11.03
2022-10-30T21:28:01.801Z,11.09
2022-10-30T21:30:31.316Z,11.17
2022-10-30T21:33:00.101Z,11.08
2022-10-30T21:35:28.412Z,11.16
2022-10-30T21:37:56.112Z,11.09
2022-10-30T21:40:23.816Z,10.93
2022-10-30T21:42:51.510Z,10.83
2022-10-30T21:45:19.435Z,10.79
2022-10-30T21:47:52.713Z,10.86
2022-10-30T21:50:20.602Z,10.86
2022-10-30T21:52:48.415Z,10.81
2022-10-30T21:55:16.252Z,10.70
2022-10-30T21:57:44.052Z,10.74
2022-10-30T22:00:13.119Z,10.80
2022-10-30T22:02:41.429Z,10.80
2022-10-30T22:05:10.952Z,10.64
2022-10-30T22:07:38.765Z,10.80
2022-10-30T22:10:07.919Z,10.76
2022-10-30T22:12:35.672Z,10.64
2022-10-30T22:15:03.513Z,10.57
2022-10-30T22:17:33.955Z,10.56
2022-10-30T22:20:03.201Z,10.36
2022-10-30T22:22:32.540Z,10.55
2022-10-30T22:25:00.374Z,10.50
2022-10-30T22:27:28.299Z,10.48
2022-10-30T22:29:56.150Z,10.31
2022-10-30T22:32:24.092Z,10.44
2022-10-30T22:34:51.851Z,10.49
2022-10-30T22:37:19.633Z,10.44
2022-10-30T22:39:48.759Z,10.40
2022-10-30T22:42:16.636Z,10.43
2022-10-30T22:44:44.359Z,10.44
2022-10-30T22:47:12.126Z,10.44
2022-10-30T22:49:39.914Z,10.38
2022-10-30T22:52:07.648Z,10.46
2022-10-30T22:54:35.478Z,10.41
2022-10-30T22:57:04.800Z,10.35
2022-10-30T22:59:32.575Z,10.17
2022-10-30T23:02:00.438Z,10.18
2022-10-30T23:04:28.302Z,10.14
2022-10-30T23:06:56.003Z,10.25
2022-10-30T23:09:23.770Z,10.24
2022-10-30T23:11:51.899Z,10.27
2022-10-30T23:14:20.999Z,10.22
2022-10-30T23:16:48.734Z,10.25
2022-10-30T23:19:16.514Z,10.11
2022-10-30T23:21:44.458Z,10.02
2022-10-30T23:24:12.140Z,10.15
2022-10-30T23:26:39.819Z,10.06
2022-10-30T23:29:07.543Z,10.10
2022-10-30T23:31:38.855Z,10.15
2022-10-30T23:34:09.459Z,10.06
2022-10-30T23:36:37.418Z,10.08
2022-10-30T23:39:07.040Z,10.07
2022-10-30T23:41:35.305Z,10.09
2022-10-30T23:44:06.025Z,10.15
2022-10-30T23:46:36.476Z,10.06
2022-10-30T23:49:05.237Z,10.11
2022-10-30T23:51:33.246Z,10.13
2022-10-30T23:54:01.330Z,10.16
2022-10-30T23:56:30.435Z,10.09
2022-10-30T23:58:58.348Z,10.10
